createdAt,value
2023-05-19T00:01:48.643Z,3.65
2023-05-19T00:04:15.800Z,3.58
2023-05-19T00:06:43.030Z,3.60
2023-05-19T00:09:10.839Z,3.70
2023-05-19T00:11:40.345Z,3.47
2023-05-19T00:14:09.875Z,3.92
2023-05-19T00:16:39.544Z,3.67
2023-05-19T00:19:10.659Z,3.58
2023-05-19T00:21:38.888Z,3.63
2023-05-19T00:24:06.842Z,4.03
2023-05-19T00:26:34.150Z,3.72
2023-05-19T00:29:01.348Z,3.90
2023-05-19T00:31:28.327Z,3.42
2023-05-19T00:33:55.166Z,3.70
2023-05-19T00:38:49.030Z,3.72
2023-05-19T00:41:15.835Z,3.97
2023-05-19T00:43:42.869Z,3.78
2023-05-19T00:46:11.255Z,4.28
2023-05-19T00:48:38.136Z,4.45
2023-05-19T00:51:06.903Z,4.10
2023-05-19T00:53:35.077Z,3.75
2023-05-19T00:56:03.495Z,4.20
2023-05-19T00:58:34.297Z,3.78
2023-05-19T01:01:05.306Z,4.50
2023-05-19T01:03:37.400Z,3.80
2023-05-19T01:06:08.051Z,4.45
2023-05-19T01:08:37.656Z,4.60
2023-05-19T01:11:08.796Z,4.30
2023-05-19T01:13:36.815Z,4.05
2023-05-19T01:16:40.670Z,3.85
2023-05-19T01:19:41.813Z,4.22
2023-05-19T01:22:47.757Z,3.35
2023-05-19T01:25:45.244Z,4.07
2023-05-19T01:28:39.746Z,4.40
2023-05-19T01:31:07.665Z,4.00
2023-05-19T01:33:35.158Z,3.83
2023-05-19T01:36:03.864Z,3.63
2023-05-19T01:38:34.018Z,3.83
2023-05-19T01:41:03.076Z,4.13
2023-05-19T01:43:30.083Z,3.75
2023-05-19T01:45:59.208Z,3.70
2023-05-19T01:48:27.251Z,4.05
2023-05-19T01:50:57.508Z,4.55
2023-05-19T01:53:25.178Z,3.30
2023-05-19T01:55:57.645Z,4.82
2023-05-19T01:58:46.422Z,4.05
2023-05-19T02:01:48.774Z,3.50
2023-05-19T02:04:41.508Z,3.88
2023-05-19T02:07:11.897Z,3.60
2023-05-19T02:09:44.905Z,4.13
2023-05-19T02:12:29.246Z,3.70
2023-05-19T02:15:07.479Z,3.25
2023-05-19T02:17:54.913Z,3.50
2023-05-19T02:20:22.620Z,3.55
2023-05-19T02:22:49.803Z,3.72
2023-05-19T02:25:16.955Z,3.63
2023-05-19T02:27:43.866Z,3.83
2023-05-19T02:30:12.079Z,3.67
2023-05-19T02:32:40.005Z,3.33
2023-05-19T02:35:10.000Z,4.15
2023-05-19T02:37:36.793Z,4.60
2023-05-19T02:40:11.908Z,3.55
2023-05-19T02:42:41.963Z,4.03
2023-05-19T02:45:13.098Z,4.07
2023-05-19T02:47:43.339Z,4.05
2023-05-19T02:50:10.533Z,5.38
2023-05-19T02:52:37.325Z,4.13
2023-05-19T02:55:04.540Z,4.25
2023-05-19T02:57:33.613Z,3.92
2023-05-19T03:00:01.568Z,4.05
2023-05-19T03:02:29.872Z,4.10
2023-05-19T03:04:56.944Z,4.30
2023-05-19T03:09:53.874Z,4.20
2023-05-19T03:12:22.639Z,4.32
2023-05-19T03:14:50.181Z,4.05
2023-05-19T03:17:17.501Z,3.65
2023-05-19T03:19:45.460Z,4.57
2023-05-19T03:22:14.574Z,4.30
2023-05-19T03:24:42.294Z,4.70
2023-05-19T03:27:10.158Z,4.00
2023-05-19T03:29:39.934Z,3.88
2023-05-19T03:32:09.211Z,3.72
2023-05-19T03:34:36.038Z,4.30
2023-05-19T03:37:02.828Z,3.58
2023-05-19T03:39:29.702Z,3.72
2023-05-19T03:41:56.712Z,4.00
2023-05-19T03:47:09.744Z,4.05
2023-05-19T03:49:37.245Z,4.32
2023-05-19T03:52:05.271Z,4.20
2023-05-19T03:54:32.081Z,4.05
2023-05-19T03:56:59.382Z,4.15
2023-05-19T03:59:26.132Z,4.50
2023-05-19T04:01:53.521Z,3.80
2023-05-19T04:04:22.171Z,3.70
2023-05-19T04:06:49.243Z,3.90
2023-05-19T04:09:16.980Z,4.00
2023-05-19T04:11:43.852Z,4.07
2023-05-19T04:14:10.721Z,4.10
2023-05-19T04:16:38.062Z,4.32
2023-05-19T04:19:05.229Z,4.72
2023-05-19T04:21:32.009Z,4.03
2023-05-19T04:24:01.315Z,4.45
2023-05-19T04:26:30.945Z,4.07
2023-05-19T04:28:57.756Z,3.97
2023-05-19T04:31:27.182Z,4.22
2023-05-19T04:33:54.392Z,4.55
2023-05-19T04:36:22.147Z,4.65
2023-05-19T04:38:51.297Z,4.03
2023-05-19T04:41:18.816Z,4.75
2023-05-19T04:43:46.259Z,4.93
2023-05-19T04:46:14.171Z,5.05
2023-05-19T04:48:43.042Z,4.50
2023-05-19T04:51:10.555Z,4.50
2023-05-19T04:53:37.239Z,4.57
2023-05-19T04:56:05.357Z,4.50
2023-05-19T04:58:32.153Z,5.05
2023-05-19T05:00:58.836Z,4.55
2023-05-19T05:03:26.713Z,4.85
2023-05-19T05:05:53.861Z,4.90
2023-05-19T05:08:23.699Z,4.80
2023-05-19T05:10:52.258Z,5.25
2023-05-19T05:13:21.769Z,5.13
2023-05-19T05:15:49.262Z,5.20
2023-05-19T05:18:16.711Z,4.88
2023-05-19T05:20:45.121Z,4.70
2023-05-19T05:23:16.659Z,4.65
2023-05-19T05:25:44.577Z,4.40
2023-05-19T05:28:11.922Z,4.75
2023-05-19T05:30:38.697Z,4.30
2023-05-19T05:33:10.033Z,4.10
2023-05-19T05:35:37.234Z,4.05
2023-05-19T05:38:05.479Z,3.20
2023-05-19T05:40:34.276Z,3.35
2023-05-19T05:43:03.508Z,3.25
2023-05-19T05:45:31.159Z,3.05
2023-05-19T05:47:59.632Z,3.40
2023-05-19T05:50:28.544Z,3.50
2023-05-19T05:53:02.345Z,3.30
2023-05-19T05:55:55.850Z,3.65
2023-05-19T06:03:45.873Z,3.15
2023-05-19T06:06:20.001Z,2.90
2023-05-19T06:08:46.556Z,3.20
2023-05-19T06:11:13.151Z,3.05
2023-05-19T06:13:41.394Z,2.63
2023-05-19T06:16:08.191Z,4.40
2023-05-19T06:18:34.813Z,3.03
2023-05-19T06:21:08.972Z,2.80
2023-05-19T06:23:36.001Z,3.10
2023-05-19T06:26:02.646Z,3.08
2023-05-19T06:30:55.783Z,2.60
2023-05-19T06:35:48.884Z,3.30
2023-05-19T06:38:15.453Z,3.05
2023-05-19T06:40:42.014Z,3.33
2023-05-19T06:43:08.568Z,3.03
2023-05-19T06:45:35.271Z,2.90
2023-05-19T06:48:02.082Z,3.05
2023-05-19T06:50:28.663Z,3.40
2023-05-19T06:55:21.950Z,2.85
2023-05-19T06:57:48.610Z,2.42
2023-05-19T07:00:18.805Z,2.92
2023-05-19T07:02:46.625Z,2.70
2023-05-19T07:05:13.749Z,2.90
2023-05-19T07:07:40.499Z,2.50
2023-05-19T07:10:07.931Z,3.05
2023-05-19T07:12:34.614Z,2.95
2023-05-19T07:15:01.321Z,2.92
2023-05-19T07:17:28.084Z,3.25
2023-05-19T07:19:54.813Z,3.35
2023-05-19T07:22:22.444Z,2.90
2023-05-19T07:24:49.259Z,3.00
2023-05-19T07:27:16.057Z,2.92
2023-05-19T07:29:42.740Z,2.60
2023-05-19T07:32:09.597Z,2.60
2023-05-19T07:34:36.890Z,2.83
2023-05-19T07:37:03.735Z,2.83
2023-05-19T07:39:32.486Z,2.13
2023-05-19T07:41:59.501Z,2.47
2023-05-19T07:44:27.347Z,2.33
2023-05-19T07:46:54.699Z,2.55
2023-05-19T07:49:21.423Z,3.10
2023-05-19T07:51:48.126Z,2.05
2023-05-19T07:54:14.913Z,2.70
2023-05-19T07:56:41.650Z,3.17
2023-05-19T07:59:08.474Z,2.75
2023-05-19T08:01:35.240Z,2.35
2023-05-19T08:04:02.317Z,2.78
2023-05-19T08:06:32.169Z,2.20
2023-05-19T08:08:58.925Z,2.20
2023-05-19T08:11:26.130Z,2.80
2023-05-19T08:13:54.283Z,2.88
2023-05-19T08:16:21.547Z,2.38
2023-05-19T08:18:48.508Z,2.10
2023-05-19T08:21:15.143Z,2.50
2023-05-19T08:23:41.800Z,2.53
2023-05-19T08:26:09.640Z,2.30
2023-05-19T08:28:36.370Z,2.30
2023-05-19T08:31:04.245Z,2.45
2023-05-19T08:33:33.561Z,2.45
2023-05-19T08:36:00.370Z,2.40
2023-05-19T08:38:27.246Z,2.28
2023-05-19T08:40:54.782Z,2.60
2023-05-19T08:43:21.816Z,2.60
2023-05-19T08:45:48.617Z,2.55
2023-05-19T08:48:32.173Z,2.35
2023-05-19T09:01:17.280Z,2.20
2023-05-19T09:04:18.368Z,2.10
2023-05-19T09:06:52.623Z,3.28
2023-05-19T09:09:32.043Z,2.50
2023-05-19T09:12:16.214Z,1.90
2023-05-19T09:18:14.280Z,2.38
2023-05-19T09:20:42.840Z,2.10
2023-05-19T09:23:14.179Z,2.40
2023-05-19T09:25:51.120Z,2.40
2023-05-19T09:28:33.314Z,2.33
2023-05-19T09:31:08.497Z,2.55
2023-05-19T09:33:37.103Z,2.15
2023-05-19T09:36:06.280Z,2.00
2023-05-19T09:38:33.167Z,2.58
2023-05-19T09:41:00.944Z,2.58
2023-05-19T09:43:33.655Z,2.03
2023-05-19T09:46:04.488Z,2.13
2023-05-19T09:48:31.118Z,2.28
2023-05-19T09:50:58.325Z,2.20
2023-05-19T09:53:27.968Z,2.50
2023-05-19T09:55:58.121Z,1.90
2023-05-19T09:58:26.550Z,2.10
2023-05-19T10:00:57.242Z,2.15
2023-05-19T10:03:25.415Z,2.20
2023-05-19T10:05:53.555Z,2.17
2023-05-19T10:08:20.391Z,2.42
2023-05-19T10:10:47.924Z,2.40
2023-05-19T10:13:16.633Z,2.50
2023-05-19T10:15:57.433Z,1.95
2023-05-19T10:18:26.903Z,2.28
2023-05-19T10:20:54.948Z,2.33
2023-05-19T10:23:23.498Z,2.35
2023-05-19T10:25:54.943Z,2.60
2023-05-19T10:28:25.679Z,2.20
2023-05-19T10:30:56.717Z,3.13
2023-05-19T10:33:37.382Z,2.45
2023-05-19T10:36:46.109Z,2.17
2023-05-19T10:39:22.112Z,2.13
2023-05-19T10:42:01.113Z,2.40
2023-05-19T10:45:13.619Z,2.35
2023-05-19T10:47:44.393Z,2.28
2023-05-19T10:50:11.799Z,2.10
2023-05-19T10:52:40.026Z,3.03
2023-05-19T10:55:16.087Z,2.00
2023-05-19T10:57:54.263Z,2.55
2023-05-19T11:00:28.222Z,2.40
2023-05-19T11:03:12.029Z,2.22
2023-05-19T11:05:38.645Z,2.30
2023-05-19T11:08:08.254Z,1.80
2023-05-19T11:10:34.838Z,2.33
2023-05-19T11:13:01.574Z,2.58
2023-05-19T11:15:28.979Z,2.22
2023-05-19T11:17:56.024Z,2.47
2023-05-19T11:20:22.686Z,2.17
2023-05-19T11:23:11.271Z,2.03
2023-05-19T11:25:41.853Z,2.60
2023-05-19T11:28:10.476Z,2.97
2023-05-19T11:30:37.568Z,2.55
2023-05-19T11:33:05.270Z,2.40
2023-05-19T11:35:36.029Z,2.20
2023-05-19T11:38:03.646Z,2.10
2023-05-19T11:40:33.647Z,2.38
2023-05-19T11:43:01.959Z,1.95
2023-05-19T11:45:31.599Z,2.13
2023-05-19T11:48:02.701Z,2.50
2023-05-19T11:50:31.412Z,2.00
2023-05-19T11:53:00.252Z,2.53
2023-05-19T11:55:27.271Z,2.15
2023-05-19T11:58:05.592Z,2.15
2023-05-19T12:00:40.078Z,2.35
2023-05-19T12:03:07.751Z,2.30
2023-05-19T12:05:41.828Z,2.05
2023-05-19T12:08:09.847Z,2.22
2023-05-19T12:10:38.367Z,2.35
2023-05-19T12:13:08.307Z,2.00
2023-05-19T12:15:35.575Z,2.05
2023-05-19T12:18:03.254Z,1.98
2023-05-19T12:20:35.976Z,2.40
2023-05-19T12:23:03.845Z,2.38
2023-05-19T12:25:31.846Z,2.38
2023-05-19T12:28:00.382Z,2.05
2023-05-19T12:30:29.383Z,2.33
2023-05-19T12:32:58.278Z,1.80
2023-05-19T12:35:33.705Z,2.40
2023-05-19T12:38:09.497Z,1.90
2023-05-19T12:40:37.965Z,2.67
2023-05-19T12:43:05.583Z,2.00
2023-05-19T12:45:42.706Z,2.15
2023-05-19T12:48:12.809Z,2.13
2023-05-19T12:50:39.639Z,2.33
2023-05-19T12:53:10.714Z,2.03
2023-05-19T12:55:44.401Z,2.30
2023-05-19T12:58:12.795Z,2.10
2023-05-19T13:00:45.612Z,2.15
2023-05-19T13:03:20.454Z,1.90
2023-05-19T13:05:49.137Z,2.15
2023-05-19T13:08:18.280Z,2.10
2023-05-19T13:10:46.425Z,2.22
2023-05-19T13:13:13.485Z,2.47
2023-05-19T13:15:45.005Z,2.80
2023-05-19T13:18:13.794Z,2.80
2023-05-19T13:20:42.161Z,1.92
2023-05-19T13:23:11.037Z,2.28
2023-05-19T13:25:37.978Z,2.10
2023-05-19T13:28:05.999Z,3.47
2023-05-19T13:30:34.614Z,2.38
2023-05-19T13:33:02.204Z,2.50
2023-05-19T13:35:29.027Z,5.75
2023-05-19T13:37:55.760Z,4.88
2023-05-19T13:40:24.085Z,3.25
2023-05-19T13:42:51.029Z,2.83
2023-05-19T13:45:18.464Z,2.20
2023-05-19T13:47:45.108Z,2.38
2023-05-19T13:50:12.409Z,2.50
2023-05-19T13:52:39.211Z,2.00
2023-05-19T13:55:07.388Z,2.78
2023-05-19T13:57:34.224Z,2.05
2023-05-19T14:00:03.843Z,2.28
2023-05-19T14:02:31.068Z,2.30
2023-05-19T14:04:57.961Z,2.35
2023-05-19T14:07:25.756Z,2.15
2023-05-19T14:09:52.801Z,2.17
2023-05-19T14:12:23.167Z,2.00
2023-05-19T14:14:52.299Z,2.08
2023-05-19T14:17:18.951Z,2.22
2023-05-19T14:19:45.564Z,2.33
2023-05-19T14:22:13.543Z,2.00
2023-05-19T14:24:40.195Z,2.17
2023-05-19T14:27:06.814Z,2.20
2023-05-19T14:29:34.083Z,2.17
2023-05-19T14:32:00.926Z,1.98
2023-05-19T14:34:27.697Z,2.45
2023-05-19T14:36:54.298Z,2.17
2023-05-19T14:39:21.177Z,2.30
2023-05-19T14:41:49.518Z,2.03
2023-05-19T14:44:16.160Z,1.95
2023-05-19T14:46:42.916Z,1.90
2023-05-19T14:49:09.612Z,2.40
2023-05-19T14:51:36.307Z,2.08
2023-05-19T14:54:02.990Z,2.42
2023-05-19T14:56:29.740Z,2.42
2023-05-19T14:58:56.639Z,2.03
2023-05-19T15:01:23.433Z,2.40
2023-05-19T15:03:50.267Z,2.42
2023-05-19T15:06:16.942Z,2.40
2023-05-19T15:08:43.657Z,2.30
2023-05-19T15:11:10.263Z,2.05
2023-05-19T15:13:36.910Z,2.15
2023-05-19T15:16:16.297Z,1.83
2023-05-19T15:18:44.653Z,1.92
2023-05-19T15:21:11.600Z,1.92
2023-05-19T15:23:38.513Z,2.25
2023-05-19T15:26:05.299Z,1.83
2023-05-19T15:28:32.468Z,1.90
2023-05-19T15:30:59.251Z,2.22
2023-05-19T15:33:25.991Z,2.45
2023-05-19T15:35:52.704Z,1.90
2023-05-19T15:38:19.793Z,1.88
2023-05-19T15:40:46.987Z,2.15
2023-05-19T15:43:14.311Z,1.98
2023-05-19T15:45:41.068Z,1.88
2023-05-19T15:48:11.760Z,2.15
2023-05-19T15:50:39.786Z,2.22
2023-05-19T15:53:08.642Z,1.85
2023-05-19T15:55:35.401Z,2.13
2023-05-19T15:58:02.168Z,1.80
2023-05-19T16:00:29.299Z,2.00
2023-05-19T16:02:56.260Z,1.73
2023-05-19T16:05:24.380Z,2.10
2023-05-19T16:07:51.819Z,2.45
2023-05-19T16:10:19.550Z,1.95
2023-05-19T16:12:49.597Z,1.98
2023-05-19T16:15:16.367Z,2.70
2023-05-19T16:17:42.970Z,2.03
2023-05-19T16:20:10.364Z,2.10
2023-05-19T16:22:37.147Z,2.10
2023-05-19T16:25:04.667Z,2.20
2023-05-19T16:27:31.793Z,1.90
2023-05-19T16:29:58.920Z,2.15
2023-05-19T16:32:26.014Z,1.92
2023-05-19T16:34:53.282Z,2.13
2023-05-19T16:37:20.401Z,2.30
2023-05-19T16:39:48.776Z,2.13
2023-05-19T16:42:15.593Z,2.08
2023-05-19T16:44:42.996Z,2.70
2023-05-19T16:47:10.442Z,2.22
2023-05-19T16:49:38.064Z,2.03
2023-05-19T16:52:05.275Z,2.15
2023-05-19T16:54:31.996Z,2.30
2023-05-19T16:56:58.724Z,1.90
2023-05-19T16:59:25.484Z,1.70
2023-05-19T17:01:52.663Z,1.77
2023-05-19T17:04:19.584Z,1.65
2023-05-19T17:06:46.811Z,1.70
2023-05-19T17:09:13.528Z,2.00
2023-05-19T17:11:43.773Z,2.10
2023-05-19T17:14:10.596Z,2.40
2023-05-19T17:16:38.100Z,2.00
2023-05-19T17:19:04.897Z,2.25
2023-05-19T17:21:32.076Z,2.30
2023-05-19T17:23:58.727Z,2.13
2023-05-19T17:26:26.931Z,2.28
2023-05-19T17:28:54.165Z,2.00
2023-05-19T17:31:21.386Z,1.98
2023-05-19T17:33:48.289Z,1.92
2023-05-19T17:36:22.985Z,1.90
2023-05-19T17:38:49.868Z,2.20
2023-05-19T17:41:18.089Z,1.80
2023-05-19T17:43:46.585Z,2.05
2023-05-19T17:46:13.727Z,2.20
2023-05-19T17:48:40.497Z,1.90
2023-05-19T17:51:07.642Z,2.05
2023-05-19T17:53:34.969Z,2.20
2023-05-19T17:56:03.870Z,1.77
2023-05-19T17:58:30.871Z,1.80
2023-05-19T18:00:58.088Z,2.05
2023-05-19T18:03:25.271Z,1.90
2023-05-19T18:05:52.397Z,1.85
2023-05-19T18:08:19.441Z,1.95
2023-05-19T18:10:46.462Z,1.90
2023-05-19T18:13:16.343Z,2.05
2023-05-19T18:15:43.011Z,1.90
2023-05-19T18:18:11.193Z,1.90
2023-05-19T18:20:39.564Z,1.70
2023-05-19T18:23:06.255Z,2.10
2023-05-19T18:25:33.660Z,2.00
2023-05-19T18:28:00.447Z,2.00
2023-05-19T18:30:27.242Z,2.08
2023-05-19T18:32:54.115Z,2.35
2023-05-19T18:35:23.309Z,1.75
2023-05-19T18:37:50.130Z,2.10
2023-05-19T18:40:16.942Z,1.80
2023-05-19T18:42:43.642Z,1.77
2023-05-19T18:45:10.547Z,2.20
2023-05-19T18:47:38.352Z,1.98
2023-05-19T18:50:06.034Z,2.08
2023-05-19T18:52:33.072Z,2.30
2023-05-19T18:55:01.359Z,2.00
2023-05-19T18:57:28.181Z,1.90
2023-05-19T18:59:54.868Z,1.80
2023-05-19T19:02:22.753Z,1.60
2023-05-19T19:04:49.594Z,2.15
2023-05-19T19:07:16.387Z,2.03
2023-05-19T19:09:43.997Z,1.70
2023-05-19T19:12:11.249Z,1.73
2023-05-19T19:14:38.685Z,1.77
2023-05-19T19:17:05.797Z,1.60
2023-05-19T19:19:32.653Z,2.13
2023-05-19T19:21:59.721Z,1.75
2023-05-19T19:24:28.635Z,1.80
2023-05-19T19:26:55.394Z,1.90
2023-05-19T19:29:24.595Z,1.70
2023-05-19T19:31:51.443Z,1.80
2023-05-19T19:34:20.016Z,1.60
2023-05-19T19:36:48.012Z,1.92
2023-05-19T19:39:14.813Z,1.60
2023-05-19T19:41:41.599Z,1.83
2023-05-19T19:44:08.410Z,1.70
2023-05-19T19:46:35.714Z,1.70
2023-05-19T19:49:02.503Z,1.52
2023-05-19T19:51:31.953Z,1.70
2023-05-19T19:53:59.258Z,1.83
2023-05-19T19:56:28.333Z,1.73
2023-05-19T19:58:57.547Z,1.98
2023-05-19T20:01:27.966Z,1.70
2023-05-19T20:03:56.125Z,1.90
2023-05-19T20:06:23.712Z,1.77
2023-05-19T20:08:50.648Z,1.90
2023-05-19T20:11:19.974Z,1.60
2023-05-19T20:13:47.781Z,1.90
2023-05-19T20:16:14.560Z,2.08
2023-05-19T20:18:41.559Z,1.73
2023-05-19T20:21:08.445Z,2.15
2023-05-19T20:23:35.469Z,2.10
2023-05-19T20:26:11.143Z,1.77
2023-05-19T20:28:41.426Z,1.90
2023-05-19T20:31:08.615Z,1.75
2023-05-19T20:33:35.911Z,1.70
2023-05-19T20:36:02.794Z,1.52
2023-05-19T20:38:30.060Z,2.00
2023-05-19T20:40:57.665Z,1.88
2023-05-19T20:43:24.606Z,1.80
2023-05-19T20:45:51.621Z,2.03
2023-05-19T20:48:18.377Z,2.10
2023-05-19T20:50:45.088Z,3.17
2023-05-19T20:53:11.832Z,4.78
2023-05-19T20:55:39.269Z,5.00
2023-05-19T20:58:06.199Z,3.42
2023-05-19T21:00:33.370Z,2.25
2023-05-19T21:03:01.034Z,2.10
2023-05-19T21:05:29.576Z,2.10
2023-05-19T21:07:56.506Z,2.20
2023-05-19T21:10:23.302Z,2.28
2023-05-19T21:12:49.969Z,2.25
2023-05-19T21:15:16.825Z,2.28
2023-05-19T21:17:43.624Z,2.40
2023-05-19T21:20:10.720Z,2.50
2023-05-19T21:22:37.320Z,3.38
2023-05-19T21:25:04.227Z,2.80
2023-05-19T21:27:32.955Z,3.47
2023-05-19T21:30:00.220Z,3.90
2023-05-19T21:32:27.436Z,3.05
2023-05-19T21:34:54.006Z,2.30
2023-05-19T21:37:21.803Z,2.03
2023-05-19T21:39:48.950Z,2.00
2023-05-19T21:42:15.633Z,2.30
2023-05-19T21:44:42.279Z,2.15
2023-05-19T21:47:08.853Z,1.92
2023-05-19T21:49:35.633Z,2.03
2023-05-19T21:52:02.205Z,2.08
2023-05-19T21:54:28.790Z,2.10
2023-05-19T21:56:55.368Z,2.22
2023-05-19T21:59:24.792Z,2.13
2023-05-19T22:01:51.497Z,2.30
2023-05-19T22:04:18.979Z,2.13
2023-05-19T22:06:45.739Z,2.15
2023-05-19T22:09:12.934Z,2.00
2023-05-19T22:11:39.795Z,2.40
2023-05-19T22:14:06.372Z,2.22
2023-05-19T22:16:33.029Z,2.00
2023-05-19T22:19:00.213Z,2.25
2023-05-19T22:21:26.878Z,2.25
2023-05-19T22:23:53.433Z,2.15
2023-05-19T22:26:19.978Z,1.98
2023-05-19T22:31:13.037Z,2.03
2023-05-19T22:33:39.584Z,2.00
2023-05-19T22:38:33.189Z,2.13
2023-05-19T22:40:59.837Z,1.95
2023-05-19T22:43:26.407Z,2.75
2023-05-19T22:48:19.484Z,2.63
2023-05-19T22:55:39.271Z,2.30
2023-05-19T23:00:33.153Z,2.58
2023-05-19T23:02:59.777Z,2.40
2023-05-19T23:10:19.688Z,2.00
2023-05-19T23:12:46.421Z,2.35
2023-05-19T23:15:12.966Z,2.30
2023-05-19T23:17:39.543Z,2.40
2023-05-19T23:22:33.156Z,2.50
2023-05-19T23:27:28.575Z,2.22
2023-05-19T23:32:21.607Z,2.30
2023-05-19T23:34:48.856Z,2.20
2023-05-19T23:37:15.436Z,2.63
2023-05-19T23:42:08.830Z,2.30
2023-05-19T23:44:35.590Z,1.90
2023-05-19T23:49:28.731Z,2.83
2023-05-19T23:54:21.859Z,2.10
2023-05-19T23:59:14.902Z,2.45
